createdAt,value
2022-10-16T00:02:24.635Z,0.40
2022-10-16T00:07:28.645Z,0.90
2022-10-16T00:12:32.067Z,0.50
2022-10-16T00:17:35.319Z,1.40
2022-10-16T00:22:38.592Z,1.10
2022-10-16T00:27:41.940Z,1.30
2022-10-16T00:32:45.182Z,1.60
2022-10-16T00:37:48.408Z,1.00
2022-10-16T00:42:51.658Z,1.20
2022-10-16T00:48:00.723Z,0.90
2022-10-16T00:53:13.006Z,1.00
2022-10-16T00:58:17.114Z,0.80
2022-10-16T01:03:26.713Z,1.10
2022-10-16T01:08:46.615Z,0.50
2022-10-16T01:13:55.293Z,0.60
2022-10-16T01:19:15.919Z,0.70
2022-10-16T01:24:41.195Z,2.00
2022-10-16T01:29:57.002Z,0.60
2022-10-16T01:35:13.739Z,0.90
2022-10-16T01:40:18.934Z,0.80
2022-10-16T01:45:22.851Z,0.30
2022-10-16T01:50:26.617Z,0.60
2022-10-16T01:55:34.283Z,1.00
2022-10-16T02:00:39.934Z,0.60
2022-10-16T02:05:54.350Z,0.60
2022-10-16T02:10:59.160Z,0.40
2022-10-16T02:16:02.437Z,0.40
2022-10-16T02:21:17.955Z,0.40
2022-10-16T02:26:30.070Z,1.10
2022-10-16T02:31:36.003Z,0.40
2022-10-16T02:36:40.683Z,1.20
2022-10-16T02:41:43.949Z,0.40
2022-10-16T02:46:47.302Z,0.10
2022-10-16T02:51:50.431Z,0.40
2022-10-16T02:56:53.614Z,0.40
2022-10-16T03:01:56.841Z,0.40
2022-10-16T03:07:00.241Z,0.60
2022-10-16T03:12:03.638Z,0.30
2022-10-16T03:17:07.481Z,0.20
2022-10-16T03:22:10.775Z,0.80
2022-10-16T03:27:14.005Z,0.70
2022-10-16T03:32:17.355Z,0.70
2022-10-16T03:37:20.639Z,0.40
2022-10-16T03:42:23.863Z,0.20
2022-10-16T03:47:27.392Z,0.90
2022-10-16T03:52:31.691Z,1.30
2022-10-16T03:57:34.976Z,0.30
2022-10-16T04:02:38.188Z,0.20
2022-10-16T04:07:41.433Z,0.50
2022-10-16T04:12:44.647Z,0.40
2022-10-16T04:17:48.290Z,0.60
2022-10-16T04:22:51.507Z,0.80
2022-10-16T04:27:55.380Z,0.60
2022-10-16T04:32:58.636Z,0.30
2022-10-16T04:38:01.873Z,0.80
2022-10-16T04:43:05.919Z,1.90
2022-10-16T04:48:09.153Z,0.30
2022-10-16T04:53:12.402Z,0.50
2022-10-16T04:58:15.539Z,0.80
2022-10-16T05:03:18.832Z,0.90
2022-10-16T05:08:22.278Z,0.70
2022-10-16T05:13:25.566Z,1.00
2022-10-16T05:18:30.025Z,0.90
2022-10-16T05:23:35.336Z,0.30
2022-10-16T05:28:38.635Z,1.10
2022-10-16T05:33:42.378Z,0.20
2022-10-16T05:38:47.161Z,0.60
2022-10-16T05:43:53.020Z,0.30
2022-10-16T05:48:57.397Z,0.60
2022-10-16T05:54:00.717Z,0.90
2022-10-16T05:59:07.483Z,0.90
2022-10-16T06:09:22.360Z,0.80
2022-10-16T06:14:25.908Z,0.50
2022-10-16T06:19:29.240Z,0.10
2022-10-16T06:24:32.609Z,0.70
2022-10-16T06:29:46.344Z,0.70
2022-10-16T06:34:55.179Z,0.40
2022-10-16T06:39:58.462Z,0.20
2022-10-16T06:45:05.422Z,0.80
2022-10-16T06:50:11.657Z,0.90
2022-10-16T06:55:18.423Z,0.80
2022-10-16T07:05:25.934Z,0.50
2022-10-16T07:10:29.123Z,0.60
2022-10-16T07:15:33.525Z,0.80
2022-10-16T07:20:36.836Z,0.60
2022-10-16T07:25:40.436Z,0.10
2022-10-16T07:30:46.880Z,0.70
2022-10-16T07:35:56.498Z,0.20
2022-10-16T07:41:04.496Z,0.90
2022-10-16T07:46:11.841Z,0.40
2022-10-16T07:51:17.610Z,0.30
2022-10-16T07:56:22.054Z,0.60
2022-10-16T08:01:28.617Z,0.40
2022-10-16T08:06:37.016Z,0.60
2022-10-16T08:11:40.473Z,0.50
2022-10-16T08:16:43.622Z,0.10
2022-10-16T08:21:51.917Z,0.00
2022-10-16T08:26:55.857Z,0.40
2022-10-16T08:32:02.096Z,0.60
2022-10-16T08:37:05.510Z,0.50
2022-10-16T08:42:14.426Z,0.00
2022-10-16T08:47:24.730Z,0.50
2022-10-16T08:52:32.279Z,0.30
2022-10-16T08:57:35.562Z,1.10
2022-10-16T09:02:40.540Z,0.10
2022-10-16T09:08:13.335Z,0.20
2022-10-16T09:13:28.502Z,0.70
2022-10-16T09:19:06.505Z,0.50
2022-10-16T09:24:18.198Z,0.40
2022-10-16T09:29:23.005Z,0.90
2022-10-16T09:34:33.610Z,0.50
2022-10-16T09:39:55.359Z,0.40
2022-10-16T09:45:02.535Z,0.20
2022-10-16T09:50:27.707Z,0.70
2022-10-16T09:55:33.037Z,0.20
2022-10-16T10:00:43.462Z,1.00
2022-10-16T10:05:50.250Z,0.70
2022-10-16T10:10:58.827Z,0.30
2022-10-16T10:16:04.142Z,0.20
2022-10-16T10:21:16.136Z,0.10
2022-10-16T10:26:22.530Z,0.10
2022-10-16T10:31:36.648Z,0.70
2022-10-16T10:36:41.724Z,0.70
2022-10-16T10:42:00.389Z,0.20
2022-10-16T10:47:06.657Z,0.20
2022-10-16T10:52:33.094Z,0.40
2022-10-16T10:58:00.795Z,0.30
2022-10-16T11:03:43.432Z,0.20
2022-10-16T11:14:04.277Z,0.20
2022-10-16T11:19:40.758Z,0.10
2022-10-16T11:24:48.491Z,0.10
2022-10-16T11:30:04.880Z,0.30
2022-10-16T11:35:18.609Z,0.00
2022-10-16T11:40:36.956Z,0.00
2022-10-16T11:45:44.431Z,0.20
2022-10-16T11:51:09.546Z,0.60
2022-10-16T11:56:15.292Z,0.30
2022-10-16T12:01:36.639Z,0.30
2022-10-16T12:07:07.092Z,0.40
2022-10-16T12:12:38.862Z,0.30
2022-10-16T12:17:42.502Z,0.40
2022-10-16T12:22:51.919Z,0.20
2022-10-16T12:27:59.614Z,1.40
2022-10-16T12:33:23.398Z,0.10
2022-10-16T12:38:39.108Z,0.00
2022-10-16T12:43:49.294Z,0.30
2022-10-16T12:49:16.344Z,0.20
2022-10-16T12:54:42.964Z,1.00
2022-10-16T13:00:47.294Z,1.20
2022-10-16T13:06:07.820Z,0.80
2022-10-16T13:11:21.364Z,0.30
2022-10-16T13:16:32.299Z,0.60
2022-10-16T13:22:22.937Z,0.50
2022-10-16T13:27:38.445Z,0.30
2022-10-16T13:32:42.001Z,0.30
2022-10-16T13:37:48.515Z,0.30
2022-10-16T13:42:53.909Z,0.40
2022-10-16T13:48:04.803Z,0.60
2022-10-16T13:53:16.929Z,0.40
2022-10-16T13:58:21.041Z,0.60
2022-10-16T14:03:25.595Z,0.10
2022-10-16T14:08:31.007Z,0.30
2022-10-16T14:13:45.268Z,0.20
2022-10-16T14:18:56.344Z,0.50
2022-10-16T14:24:13.656Z,0.60
2022-10-16T14:29:21.117Z,0.40
2022-10-16T14:34:38.770Z,0.00
2022-10-16T14:39:45.793Z,0.70
2022-10-16T14:44:56.806Z,0.10
2022-10-16T14:50:01.145Z,0.10
2022-10-16T14:55:05.529Z,0.50
2022-10-16T15:00:18.407Z,0.10
2022-10-16T15:05:28.414Z,0.10
2022-10-16T15:10:44.682Z,0.60
2022-10-16T15:15:50.465Z,0.80
2022-10-16T15:20:54.066Z,0.30
2022-10-16T15:25:58.133Z,0.30
2022-10-16T15:31:01.548Z,0.50
2022-10-16T15:36:05.215Z,0.60
2022-10-16T15:41:09.018Z,0.50
2022-10-16T15:46:18.808Z,0.20
2022-10-16T15:51:28.416Z,0.10
2022-10-16T15:56:34.818Z,0.70
2022-10-16T16:01:43.483Z,1.10
2022-10-16T16:06:52.518Z,0.30
2022-10-16T16:12:03.838Z,0.90
2022-10-16T16:22:54.349Z,0.50
2022-10-16T16:28:06.978Z,0.50
2022-10-16T16:33:15.251Z,1.00
2022-10-16T16:38:21.032Z,1.40
2022-10-16T16:43:26.138Z,0.80
2022-10-16T16:48:30.780Z,1.10
2022-10-16T16:53:36.197Z,0.70
2022-10-16T16:58:44.661Z,0.80
2022-10-16T17:03:53.317Z,1.30
2022-10-16T17:08:56.838Z,0.60
2022-10-16T17:14:17.831Z,0.30
2022-10-16T17:19:24.062Z,0.90
2022-10-16T17:24:29.286Z,1.50
2022-10-16T17:29:40.873Z,1.20
2022-10-16T17:35:07.525Z,1.00
2022-10-16T17:40:17.013Z,1.00
2022-10-16T17:45:21.779Z,0.70
2022-10-16T17:50:30.866Z,1.70
2022-10-16T17:55:44.504Z,1.50
2022-10-16T18:00:52.953Z,0.40
2022-10-16T18:05:59.979Z,0.60
2022-10-16T18:11:11.659Z,1.10
2022-10-16T18:16:25.900Z,0.60
2022-10-16T18:21:31.792Z,1.00
2022-10-16T18:26:38.182Z,0.50
2022-10-16T18:31:53.748Z,1.00
2022-10-16T18:37:11.010Z,1.00
2022-10-16T18:42:16.253Z,1.40
2022-10-16T18:47:25.131Z,1.60
2022-10-16T18:52:32.839Z,1.00
2022-10-16T18:57:39.086Z,0.80
2022-10-16T19:02:46.741Z,1.20
2022-10-16T19:07:57.746Z,1.20
2022-10-16T19:13:08.904Z,1.60
2022-10-16T19:18:26.729Z,1.60
2022-10-16T19:23:38.106Z,1.30
2022-10-16T19:28:47.381Z,1.10
2022-10-16T19:34:24.420Z,1.10
2022-10-16T19:39:41.653Z,2.30
2022-10-16T19:44:46.731Z,2.40
2022-10-16T19:49:57.029Z,1.60
2022-10-16T19:55:16.987Z,1.10
2022-10-16T20:00:25.963Z,0.50
2022-10-16T20:05:34.067Z,1.40
2022-10-16T20:10:46.555Z,2.70
2022-10-16T20:16:15.383Z,0.40
2022-10-16T20:21:26.216Z,1.70
2022-10-16T20:26:36.987Z,0.90
2022-10-16T20:31:46.496Z,2.70
2022-10-16T20:37:02.594Z,2.00
2022-10-16T20:42:16.316Z,0.90
2022-10-16T20:47:30.068Z,3.10
2022-10-16T20:52:42.634Z,2.70
2022-10-16T20:57:49.628Z,1.40
2022-10-16T21:02:54.295Z,1.90
2022-10-16T21:08:07.277Z,1.60
2022-10-16T21:13:17.390Z,1.90
2022-10-16T21:23:59.345Z,2.80
2022-10-16T21:29:16.073Z,3.30
2022-10-16T21:34:31.895Z,2.30
2022-10-16T21:39:45.837Z,2.90
2022-10-16T21:44:51.708Z,2.20
2022-10-16T21:50:12.034Z,2.90
2022-10-16T21:55:44.693Z,2.20
2022-10-16T22:01:23.149Z,2.90
2022-10-16T22:06:41.476Z,2.20
2022-10-16T22:12:07.773Z,2.70
2022-10-16T22:17:35.197Z,3.80
2022-10-16T22:22:38.607Z,2.20
2022-10-16T22:27:53.851Z,2.90
2022-10-16T22:33:00.407Z,2.80
2022-10-16T22:38:08.404Z,2.00
2022-10-16T22:43:11.951Z,3.40
2022-10-16T22:48:15.467Z,2.10
2022-10-16T22:53:22.779Z,3.00
2022-10-16T22:58:26.343Z,1.50
2022-10-16T23:03:38.559Z,2.90
2022-10-16T23:08:43.233Z,3.10
2022-10-16T23:13:46.944Z,1.30
2022-10-16T23:18:50.822Z,2.30
2022-10-16T23:23:58.930Z,2.70
2022-10-16T23:29:02.774Z,4.00
2022-10-16T23:34:11.238Z,2.00
2022-10-16T23:39:14.674Z,3.40
2022-10-16T23:44:18.207Z,2.60
2022-10-16T23:49:21.987Z,2.80
2022-10-16T23:54:30.227Z,2.80
2022-10-16T23:59:38.081Z,1.90
